createdAt,value
2019-05-19T00:00:27.979Z,55.04
2019-05-19T00:01:27.954Z,53.96
2019-05-19T00:02:27.935Z,54.16
2019-05-19T00:03:27.921Z,53.28
2019-05-19T00:04:28.543Z,53.08
2019-05-19T00:05:28.247Z,54.06
2019-05-19T00:06:27.907Z,53.77
2019-05-19T00:07:27.866Z,53.77
2019-05-19T00:08:27.862Z,54.06
2019-05-19T00:09:27.847Z,54.45
2019-05-19T00:10:27.913Z,54.75
2019-05-19T00:11:27.874Z,56.31
2019-05-19T00:12:27.825Z,56.02
2019-05-19T00:13:27.812Z,55.33
2019-05-19T00:14:28.518Z,54.55
2019-05-19T00:15:27.815Z,54.45
2019-05-19T00:16:27.776Z,54.75
2019-05-19T00:17:27.771Z,53.67
2019-05-19T00:18:27.756Z,53.77
2019-05-19T00:19:27.744Z,54.75
2019-05-19T00:20:27.759Z,55.43
2019-05-19T00:21:27.902Z,55.43
2019-05-19T00:22:27.729Z,55.82
2019-05-19T00:23:27.726Z,55.33
2019-05-19T00:24:27.699Z,55.33
2019-05-19T00:25:27.689Z,55.72
2019-05-19T00:26:27.685Z,55.63
2019-05-19T00:27:27.665Z,55.43
2019-05-19T00:28:27.649Z,55.14
2019-05-19T00:29:27.646Z,56.11
2019-05-19T00:30:27.630Z,56.11
2019-05-19T00:31:27.630Z,55.63
2019-05-19T00:32:27.620Z,55.33
2019-05-19T00:33:27.603Z,54.35
2019-05-19T00:34:27.596Z,54.75
2019-05-19T00:35:27.584Z,54.84
2019-05-19T00:36:27.574Z,55.14
2019-05-19T00:37:27.560Z,55.14
2019-05-19T00:38:27.556Z,55.23
2019-05-19T00:39:27.567Z,55.33
2019-05-19T00:40:27.520Z,54.45
2019-05-19T00:41:27.535Z,55.33
2019-05-19T00:42:27.989Z,55.33
2019-05-19T00:43:28.284Z,54.75
2019-05-19T00:44:27.558Z,54.84
2019-05-19T00:45:27.544Z,55.14
2019-05-19T00:46:27.482Z,55.14
2019-05-19T00:47:27.466Z,55.14
2019-05-19T00:48:27.435Z,54.06
2019-05-19T00:49:40.627Z,54.26
2019-05-19T00:50:28.425Z,54.06
2019-05-19T00:51:27.403Z,54.94
2019-05-19T00:52:27.414Z,54.94
2019-05-19T00:53:27.384Z,55.72
2019-05-19T00:54:27.381Z,55.72
2019-05-19T00:55:27.368Z,55.04
2019-05-19T00:56:27.344Z,54.84
2019-05-19T00:57:27.333Z,51.91
2019-05-19T00:58:27.332Z,55.23
2019-05-19T00:59:27.346Z,55.43
2019-05-19T01:00:27.319Z,49.57
2019-05-19T01:01:27.308Z,53.87
2019-05-19T01:02:27.295Z,54.65
2019-05-19T01:03:27.272Z,53.87
2019-05-19T01:04:27.259Z,54.55
2019-05-19T01:05:27.274Z,53.96
2019-05-19T01:06:27.284Z,54.55
2019-05-19T01:07:27.224Z,53.48
2019-05-19T01:08:27.215Z,55.14
2019-05-19T01:09:27.199Z,55.43
2019-05-19T01:10:27.202Z,55.23
2019-05-19T01:11:27.213Z,54.65
2019-05-19T01:12:27.162Z,53.96
2019-05-19T01:13:27.184Z,54.65
2019-05-19T01:14:27.431Z,55.04
2019-05-19T01:15:27.525Z,53.28
2019-05-19T01:16:27.284Z,55.14
2019-05-19T01:17:27.132Z,54.06
2019-05-19T01:18:27.852Z,54.65
2019-05-19T01:19:27.091Z,55.14
2019-05-19T01:20:27.099Z,54.45
2019-05-19T01:21:27.084Z,53.57
2019-05-19T01:22:27.389Z,58.75
2019-05-19T01:23:27.049Z,58.27
2019-05-19T01:24:27.093Z,53.77
2019-05-19T01:25:27.054Z,54.55
2019-05-19T01:26:27.022Z,54.45
2019-05-19T01:27:27.008Z,53.96
2019-05-19T01:28:27.021Z,55.33
2019-05-19T01:29:27.193Z,55.14
2019-05-19T01:30:27.011Z,54.65
2019-05-19T01:31:26.988Z,54.35
2019-05-19T01:32:26.947Z,54.55
2019-05-19T01:33:26.982Z,54.75
2019-05-19T01:34:26.933Z,54.65
2019-05-19T01:35:26.921Z,53.18
2019-05-19T01:36:26.922Z,54.35
2019-05-19T01:37:26.950Z,53.77
2019-05-19T01:38:28.884Z,53.77
2019-05-19T01:39:26.906Z,53.57
2019-05-19T01:40:26.872Z,53.77
2019-05-19T01:41:26.866Z,54.75
2019-05-19T01:42:26.977Z,51.91
2019-05-19T01:43:26.840Z,53.77
2019-05-19T01:44:26.849Z,54.45
2019-05-19T01:45:26.860Z,54.26
2019-05-19T01:46:26.800Z,54.35
2019-05-19T01:47:26.836Z,54.65
2019-05-19T01:48:28.107Z,54.84
2019-05-19T01:49:26.772Z,54.75
2019-05-19T01:50:26.773Z,54.65
2019-05-19T01:51:26.758Z,54.75
2019-05-19T01:52:26.789Z,57.78
2019-05-19T01:53:26.726Z,54.55
2019-05-19T01:54:26.747Z,55.43
2019-05-19T01:55:26.719Z,55.14
2019-05-19T01:56:26.710Z,54.84
2019-05-19T01:57:26.680Z,54.75
2019-05-19T01:58:26.680Z,54.45
2019-05-19T01:59:26.658Z,54.35
2019-05-19T02:00:26.649Z,54.06
2019-05-19T02:01:26.652Z,53.96
2019-05-19T02:02:26.651Z,55.23
2019-05-19T02:03:26.641Z,53.87
2019-05-19T02:04:26.607Z,56.90
2019-05-19T02:05:26.598Z,56.41
2019-05-19T02:06:26.588Z,57.97
2019-05-19T02:07:26.626Z,58.07
2019-05-19T02:08:26.569Z,58.27
2019-05-19T02:09:26.569Z,56.99
2019-05-19T02:10:26.550Z,58.46
2019-05-19T02:11:26.532Z,57.87
2019-05-19T02:12:26.529Z,57.78
2019-05-19T02:13:26.509Z,57.48
2019-05-19T02:14:26.514Z,57.68
2019-05-19T02:15:26.509Z,57.78
2019-05-19T02:16:26.480Z,56.90
2019-05-19T02:17:26.466Z,57.97
2019-05-19T02:18:26.462Z,58.66
2019-05-19T02:19:26.471Z,57.58
2019-05-19T02:20:33.043Z,57.48
2019-05-19T02:21:27.429Z,57.78
2019-05-19T02:22:26.406Z,57.19
2019-05-19T02:23:26.400Z,57.19
2019-05-19T02:24:26.428Z,57.97
2019-05-19T02:25:26.396Z,57.87
2019-05-19T02:26:26.390Z,58.07
2019-05-19T02:27:26.377Z,58.17
2019-05-19T02:28:26.348Z,57.87
2019-05-19T02:29:26.357Z,58.07
2019-05-19T02:30:26.318Z,57.68
2019-05-19T02:31:26.336Z,58.07
2019-05-19T02:32:26.313Z,57.97
2019-05-19T02:33:26.291Z,58.07
2019-05-19T02:34:26.295Z,57.87
2019-05-19T02:35:26.278Z,57.29
2019-05-19T02:36:26.263Z,57.68
2019-05-19T02:37:26.279Z,57.87
2019-05-19T02:38:26.248Z,58.07
2019-05-19T02:39:26.237Z,58.56
2019-05-19T02:40:26.218Z,57.87
2019-05-19T02:41:26.205Z,57.39
2019-05-19T02:42:26.198Z,56.70
2019-05-19T02:43:26.219Z,57.29
2019-05-19T02:44:26.227Z,57.09
2019-05-19T02:45:26.190Z,56.70
2019-05-19T02:46:26.154Z,57.19
2019-05-19T02:47:26.152Z,57.29
2019-05-19T02:48:26.166Z,57.19
2019-05-19T02:49:26.138Z,57.29
2019-05-19T02:50:26.105Z,56.90
2019-05-19T02:51:26.100Z,56.90
2019-05-19T02:52:26.089Z,56.70
2019-05-19T02:53:26.076Z,56.31
2019-05-19T02:54:26.264Z,55.92
2019-05-19T02:55:26.061Z,56.80
2019-05-19T02:56:26.326Z,56.60
2019-05-19T02:57:26.128Z,56.11
2019-05-19T02:58:26.138Z,56.80
2019-05-19T02:59:26.780Z,56.60
2019-05-19T03:00:26.196Z,56.41
2019-05-19T03:01:26.009Z,56.60
2019-05-19T03:02:25.975Z,56.70
2019-05-19T03:03:26.042Z,56.70
2019-05-19T03:04:25.956Z,56.60
2019-05-19T03:05:25.967Z,56.80
2019-05-19T03:06:25.947Z,56.80
2019-05-19T03:07:25.956Z,56.90
2019-05-19T03:08:26.086Z,57.19
2019-05-19T03:09:25.905Z,56.90
2019-05-19T03:10:25.942Z,56.99
2019-05-19T03:11:25.892Z,56.80
2019-05-19T03:12:25.867Z,56.99
2019-05-19T03:13:25.856Z,56.80
2019-05-19T03:14:26.294Z,56.70
2019-05-19T03:15:26.124Z,56.51
2019-05-19T03:16:26.206Z,56.60
2019-05-19T03:17:26.152Z,56.80
2019-05-19T03:18:26.175Z,56.31
2019-05-19T03:19:26.184Z,56.41
2019-05-19T03:20:26.284Z,56.51
2019-05-19T03:21:26.783Z,56.02
2019-05-19T03:22:26.335Z,56.21
2019-05-19T03:23:25.777Z,56.51
2019-05-19T03:24:25.734Z,57.19
2019-05-19T03:25:25.813Z,57.09
2019-05-19T03:26:25.734Z,56.41
2019-05-19T03:27:25.994Z,56.11
2019-05-19T03:28:26.661Z,56.41
2019-05-19T03:29:25.822Z,56.41
2019-05-19T03:30:25.777Z,56.41
2019-05-19T03:31:25.695Z,56.51
2019-05-19T03:32:25.668Z,56.99
2019-05-19T03:33:26.030Z,56.80
2019-05-19T03:34:27.005Z,62.08
2019-05-19T03:35:25.901Z,59.14
2019-05-19T03:36:25.914Z,56.80
2019-05-19T03:37:26.971Z,55.43
2019-05-19T03:38:26.651Z,56.31
2019-05-19T03:39:25.859Z,55.63
2019-05-19T03:40:25.713Z,59.14
2019-05-19T03:41:25.615Z,60.12
2019-05-19T03:42:25.581Z,58.85
2019-05-19T03:43:26.555Z,59.93
2019-05-19T03:44:26.049Z,60.32
2019-05-19T03:45:25.763Z,61.10
2019-05-19T03:46:26.222Z,60.71
2019-05-19T03:47:25.507Z,60.02
2019-05-19T03:48:27.276Z,59.83
2019-05-19T03:49:25.672Z,59.54
2019-05-19T03:50:25.799Z,58.75
2019-05-19T03:51:30.919Z,60.12
2019-05-19T03:52:26.829Z,60.22
2019-05-19T03:53:25.821Z,60.12
2019-05-19T03:54:25.505Z,61.10
2019-05-19T03:55:25.456Z,60.32
2019-05-19T03:56:26.147Z,59.73
2019-05-19T03:57:25.962Z,59.14
2019-05-19T03:58:26.024Z,59.54
2019-05-19T03:59:25.420Z,57.58
2019-05-19T04:00:25.385Z,58.46
2019-05-19T04:01:25.464Z,57.29
2019-05-19T04:02:25.578Z,57.97
2019-05-19T04:03:25.633Z,56.99
2019-05-19T04:04:25.622Z,57.68
2019-05-19T04:05:25.455Z,57.19
2019-05-19T04:06:25.800Z,57.68
2019-05-19T04:07:26.489Z,52.01
2019-05-19T04:08:25.446Z,50.64
2019-05-19T04:09:25.449Z,61.98
2019-05-19T04:10:25.508Z,62.27
2019-05-19T04:11:25.295Z,58.27
2019-05-19T04:12:25.442Z,59.63
2019-05-19T04:13:25.424Z,60.32
2019-05-19T04:14:25.335Z,59.44
2019-05-19T04:15:25.659Z,54.75
2019-05-19T04:16:25.315Z,59.63
2019-05-19T04:17:25.300Z,58.66
2019-05-19T04:18:25.332Z,58.46
2019-05-19T04:19:25.262Z,59.44
2019-05-19T04:20:25.433Z,57.58
2019-05-19T04:21:25.282Z,59.83
2019-05-19T04:22:25.542Z,60.61
2019-05-19T04:23:25.214Z,60.51
2019-05-19T04:24:25.262Z,60.02
2019-05-19T04:25:25.236Z,58.85
2019-05-19T04:26:25.524Z,57.78
2019-05-19T04:27:25.241Z,59.73
2019-05-19T04:28:25.051Z,58.27
2019-05-19T04:29:25.069Z,58.75
2019-05-19T04:30:25.238Z,59.05
2019-05-19T04:31:25.237Z,59.24
2019-05-19T04:32:25.261Z,58.66
2019-05-19T04:33:25.420Z,58.27
2019-05-19T04:34:25.045Z,57.97
2019-05-19T04:35:25.248Z,58.66
2019-05-19T04:36:25.047Z,58.07
2019-05-19T04:37:25.405Z,59.05
2019-05-19T04:38:24.971Z,58.75
2019-05-19T04:39:25.225Z,59.14
2019-05-19T04:40:25.057Z,58.66
2019-05-19T04:41:25.024Z,58.17
2019-05-19T04:42:25.018Z,59.54
2019-05-19T04:43:25.007Z,59.24
2019-05-19T04:44:24.890Z,58.27
2019-05-19T04:45:25.311Z,58.66
2019-05-19T04:46:24.945Z,58.27
2019-05-19T04:47:25.186Z,59.54
2019-05-19T04:48:24.984Z,59.73
2019-05-19T04:49:25.356Z,58.75
2019-05-19T04:50:24.995Z,58.66
2019-05-19T04:51:25.023Z,57.97
2019-05-19T04:52:25.022Z,58.07
2019-05-19T04:53:24.937Z,57.09
2019-05-19T04:54:24.876Z,56.51
2019-05-19T04:55:24.866Z,58.07
2019-05-19T04:56:24.962Z,57.29
2019-05-19T04:57:25.146Z,56.99
2019-05-19T04:58:24.934Z,57.68
2019-05-19T04:59:24.730Z,57.97
2019-05-19T05:00:24.722Z,57.48
2019-05-19T05:01:24.870Z,57.48
2019-05-19T05:02:25.990Z,57.97
2019-05-19T05:03:24.763Z,57.78
2019-05-19T05:04:29.020Z,57.97
2019-05-19T05:05:25.035Z,57.78
2019-05-19T05:06:24.714Z,57.87
2019-05-19T05:07:24.752Z,57.78
2019-05-19T05:08:30.412Z,57.78
2019-05-19T05:09:25.840Z,57.68
2019-05-19T05:10:24.669Z,58.27
2019-05-19T05:11:24.672Z,57.97
2019-05-19T05:12:24.619Z,58.27
2019-05-19T05:13:24.784Z,58.17
2019-05-19T05:14:25.009Z,57.29
2019-05-19T05:15:24.709Z,57.78
2019-05-19T05:16:24.642Z,55.92
2019-05-19T05:17:24.548Z,56.80
2019-05-19T05:18:24.555Z,57.68
2019-05-19T05:19:24.575Z,57.97
2019-05-19T05:20:24.990Z,57.68
2019-05-19T05:21:24.723Z,57.78
2019-05-19T05:22:24.626Z,57.68
2019-05-19T05:23:24.633Z,57.68
2019-05-19T05:24:24.533Z,57.97
2019-05-19T05:25:24.848Z,57.97
2019-05-19T05:26:24.518Z,57.78
2019-05-19T05:27:24.522Z,57.19
2019-05-19T05:28:24.577Z,57.29
2019-05-19T05:29:24.629Z,57.09
2019-05-19T05:30:24.771Z,56.90
2019-05-19T05:31:24.432Z,57.09
2019-05-19T05:32:24.573Z,56.99
2019-05-19T05:33:24.671Z,56.51
2019-05-19T05:34:24.445Z,55.92
2019-05-19T05:35:24.359Z,57.09
2019-05-19T05:36:27.303Z,56.99
2019-05-19T05:37:24.560Z,56.31
2019-05-19T05:38:24.396Z,56.60
2019-05-19T05:39:24.550Z,56.70
2019-05-19T05:40:24.448Z,56.31
2019-05-19T05:41:24.385Z,55.63
2019-05-19T05:42:24.308Z,55.63
2019-05-19T05:43:24.386Z,55.82
2019-05-19T05:44:24.470Z,54.65
2019-05-19T05:45:24.263Z,56.31
2019-05-19T05:46:24.249Z,55.92
2019-05-19T05:47:24.208Z,56.11
2019-05-19T05:48:24.255Z,55.92
2019-05-19T05:49:24.169Z,56.02
2019-05-19T05:50:24.263Z,55.63
2019-05-19T05:51:24.288Z,55.43
2019-05-19T05:52:37.581Z,55.33
2019-05-19T05:53:25.277Z,55.04
2019-05-19T05:54:24.143Z,55.92
2019-05-19T05:55:24.151Z,56.21
2019-05-19T05:56:24.114Z,55.92
2019-05-19T05:57:24.364Z,55.82
2019-05-19T05:58:24.360Z,55.92
2019-05-19T05:59:24.137Z,55.53
2019-05-19T06:00:24.179Z,55.92
2019-05-19T06:01:24.076Z,56.02
2019-05-19T06:02:24.080Z,56.21
2019-05-19T06:03:24.042Z,55.92
2019-05-19T06:04:24.035Z,55.43
2019-05-19T06:05:24.008Z,54.84
2019-05-19T06:06:24.028Z,54.94
2019-05-19T06:07:23.987Z,54.75
2019-05-19T06:08:23.964Z,54.16
2019-05-19T06:09:24.022Z,53.38
2019-05-19T06:10:23.949Z,52.99
2019-05-19T06:11:23.999Z,53.08
2019-05-19T06:12:23.939Z,52.01
2019-05-19T06:13:23.977Z,52.30
2019-05-19T06:14:23.921Z,52.11
2019-05-19T06:15:23.951Z,51.81
2019-05-19T06:16:23.886Z,52.30
2019-05-19T06:17:23.995Z,51.62
2019-05-19T06:18:25.145Z,51.13
2019-05-19T06:19:24.184Z,50.74
2019-05-19T06:20:23.843Z,50.74
2019-05-19T06:21:23.836Z,50.44
2019-05-19T06:22:23.940Z,49.96
2019-05-19T06:23:23.809Z,49.66
2019-05-19T06:24:23.864Z,49.57
2019-05-19T06:25:23.889Z,49.57
2019-05-19T06:26:23.779Z,49.47
2019-05-19T06:27:23.788Z,49.27
2019-05-19T06:28:23.748Z,48.88
2019-05-19T06:29:23.755Z,48.49
2019-05-19T06:30:23.770Z,48.20
2019-05-19T06:31:45.337Z,48.20
2019-05-19T06:32:23.746Z,47.81
2019-05-19T06:33:23.703Z,47.81
2019-05-19T06:34:23.720Z,47.12
2019-05-19T06:35:23.691Z,47.61
2019-05-19T06:36:23.687Z,47.71
2019-05-19T06:37:23.699Z,47.22
2019-05-19T06:38:23.656Z,46.24
2019-05-19T06:39:23.638Z,46.44
2019-05-19T06:40:23.637Z,46.83
2019-05-19T06:41:23.630Z,46.73
2019-05-19T06:42:23.596Z,45.26
2019-05-19T06:43:23.594Z,46.05
2019-05-19T06:44:23.611Z,46.53
2019-05-19T06:45:23.680Z,46.14
2019-05-19T06:46:23.568Z,45.46
2019-05-19T06:47:23.570Z,46.53
2019-05-19T06:48:23.556Z,46.05
2019-05-19T06:49:23.560Z,46.05
2019-05-19T06:50:23.517Z,47.12
2019-05-19T06:51:23.568Z,46.93
2019-05-19T06:52:23.494Z,45.75
2019-05-19T06:53:23.484Z,44.87
2019-05-19T06:54:23.462Z,43.60
2019-05-19T06:55:23.510Z,42.92
2019-05-19T06:56:23.476Z,41.45
2019-05-19T06:57:23.442Z,39.89
2019-05-19T06:58:23.468Z,34.32
2019-05-19T06:59:23.428Z,22.78
2019-05-19T07:00:23.469Z,9.49
2019-05-19T07:01:23.385Z,6.16
2019-05-19T07:02:23.422Z,0.00
2019-05-19T07:03:23.374Z,0.00
2019-05-19T07:04:23.359Z,0.00
2019-05-19T07:05:23.410Z,0.00
2019-05-19T07:06:23.372Z,0.00
2019-05-19T07:07:23.337Z,0.00
2019-05-19T07:08:23.444Z,0.00
2019-05-19T07:09:23.393Z,0.00
2019-05-19T07:10:23.307Z,0.00
2019-05-19T07:11:23.298Z,0.00
2019-05-19T07:12:23.293Z,0.00
2019-05-19T07:13:23.281Z,0.00
2019-05-19T07:14:23.246Z,0.00
2019-05-19T07:15:23.270Z,0.00
2019-05-19T07:16:23.245Z,0.00
2019-05-19T07:17:23.235Z,0.00
2019-05-19T07:18:23.219Z,0.00
2019-05-19T07:19:23.198Z,0.00
2019-05-19T07:20:24.050Z,0.00
2019-05-19T07:21:23.192Z,0.00
2019-05-19T07:22:23.187Z,0.00
2019-05-19T07:23:28.287Z,0.00
2019-05-19T07:24:24.159Z,0.00
2019-05-19T07:25:23.139Z,0.00
2019-05-19T07:26:23.157Z,0.00
2019-05-19T07:27:23.119Z,0.00
2019-05-19T07:28:23.180Z,0.00
2019-05-19T07:29:23.096Z,0.00
2019-05-19T07:30:23.169Z,0.00
2019-05-19T07:31:23.069Z,0.00
2019-05-19T07:32:23.066Z,0.00
2019-05-19T07:33:23.731Z,0.00
2019-05-19T07:34:23.057Z,0.00
2019-05-19T07:35:23.088Z,0.00
2019-05-19T07:36:23.025Z,0.00
2019-05-19T07:37:23.046Z,0.00
2019-05-19T07:38:23.233Z,0.00
2019-05-19T07:39:22.994Z,0.00
2019-05-19T07:40:23.070Z,0.00
2019-05-19T07:41:22.969Z,0.00
2019-05-19T07:42:22.983Z,0.00
2019-05-19T07:43:22.997Z,0.00
2019-05-19T07:44:22.937Z,0.00
2019-05-19T07:45:22.949Z,0.00
2019-05-19T07:46:22.920Z,0.00
2019-05-19T07:47:23.306Z,0.00
2019-05-19T07:48:22.937Z,0.00
2019-05-19T07:49:22.890Z,0.00
2019-05-19T07:50:22.888Z,0.00
2019-05-19T07:51:22.910Z,0.00
2019-05-19T07:52:22.845Z,0.00
2019-05-19T07:53:22.840Z,0.00
2019-05-19T07:54:22.861Z,0.00
2019-05-19T07:55:22.840Z,0.00
2019-05-19T07:56:22.809Z,0.00
2019-05-19T07:57:22.790Z,0.00
2019-05-19T07:58:22.793Z,0.00
2019-05-19T07:59:22.783Z,0.00
2019-05-19T08:00:22.790Z,0.00
2019-05-19T08:01:22.770Z,0.00
2019-05-19T08:02:23.149Z,0.00
2019-05-19T08:03:22.730Z,0.00
2019-05-19T08:04:23.328Z,0.00
2019-05-19T08:05:22.706Z,0.00
2019-05-19T08:06:22.706Z,0.00
2019-05-19T08:07:22.759Z,0.00
2019-05-19T08:08:22.668Z,0.00
2019-05-19T08:09:22.679Z,0.00
2019-05-19T08:10:22.667Z,0.00
2019-05-19T08:11:22.689Z,0.00
2019-05-19T08:12:22.645Z,0.00
2019-05-19T08:13:22.651Z,0.00
2019-05-19T08:14:22.615Z,0.00
2019-05-19T08:15:22.669Z,0.00
2019-05-19T08:16:22.623Z,0.00
2019-05-19T08:17:25.759Z,0.00
2019-05-19T08:18:22.599Z,0.00
2019-05-19T08:19:22.579Z,0.00
2019-05-19T08:20:22.544Z,0.00
2019-05-19T08:21:23.655Z,0.00
2019-05-19T08:22:22.519Z,0.00
2019-05-19T08:23:22.542Z,0.00
2019-05-19T08:24:22.522Z,0.00
2019-05-19T08:25:22.521Z,0.00
2019-05-19T08:26:23.226Z,0.00
2019-05-19T08:27:22.482Z,0.00
2019-05-19T08:28:22.471Z,0.00
2019-05-19T08:29:22.468Z,0.00
2019-05-19T08:30:22.476Z,0.00
2019-05-19T08:31:22.436Z,0.00
2019-05-19T08:32:22.626Z,0.00
2019-05-19T08:33:22.437Z,0.00
2019-05-19T08:34:22.407Z,0.00
2019-05-19T08:35:22.392Z,0.00
2019-05-19T08:36:22.373Z,0.00
2019-05-19T08:37:22.383Z,0.00
2019-05-19T08:38:22.976Z,0.00
2019-05-19T08:39:22.554Z,0.00
2019-05-19T08:40:23.598Z,0.00
2019-05-19T08:41:22.662Z,0.00
2019-05-19T08:42:22.313Z,0.00
2019-05-19T08:43:22.338Z,0.00
2019-05-19T08:44:22.398Z,0.00
2019-05-19T08:45:24.300Z,0.00
2019-05-19T08:46:22.342Z,0.00
2019-05-19T08:47:22.417Z,0.00
2019-05-19T08:48:22.255Z,0.00
2019-05-19T08:49:22.446Z,0.00
2019-05-19T08:50:22.258Z,0.00
2019-05-19T08:51:22.397Z,0.00
2019-05-19T08:52:23.915Z,0.00
2019-05-19T08:53:22.239Z,0.00
2019-05-19T08:54:22.222Z,0.00
2019-05-19T08:55:23.203Z,0.00
2019-05-19T08:56:22.230Z,0.00
2019-05-19T08:57:22.343Z,0.00
2019-05-19T08:58:22.238Z,0.00
2019-05-19T08:59:22.210Z,0.00
2019-05-19T09:00:23.714Z,0.00
2019-05-19T09:01:26.176Z,0.00
2019-05-19T09:02:26.862Z,0.00
2019-05-19T09:03:22.299Z,0.00
2019-05-19T09:04:22.113Z,0.00
2019-05-19T09:05:22.121Z,0.00
2019-05-19T09:06:22.134Z,0.00
2019-05-19T09:07:22.253Z,0.00
2019-05-19T09:08:22.245Z,0.00
2019-05-19T09:09:22.058Z,0.00
2019-05-19T09:10:22.114Z,0.00
2019-05-19T09:11:22.096Z,0.00
2019-05-19T09:12:22.051Z,0.00
2019-05-19T09:13:22.106Z,0.00
2019-05-19T09:14:22.046Z,0.00
2019-05-19T09:15:22.060Z,0.00
2019-05-19T09:16:22.301Z,0.00
2019-05-19T09:17:21.960Z,0.00
2019-05-19T09:18:22.092Z,0.00
2019-05-19T09:19:22.015Z,0.00
2019-05-19T09:20:21.986Z,0.00
2019-05-19T09:21:21.997Z,0.00
2019-05-19T09:22:22.021Z,0.00
2019-05-19T09:23:22.265Z,0.00
2019-05-19T09:24:30.066Z,0.00
2019-05-19T09:25:22.887Z,0.00
2019-05-19T09:26:22.104Z,0.00
2019-05-19T09:27:22.056Z,0.00
2019-05-19T09:28:22.350Z,0.00
2019-05-19T09:29:22.259Z,0.00
2019-05-19T09:30:21.888Z,0.00
2019-05-19T09:31:21.840Z,0.00
2019-05-19T09:32:21.815Z,0.00
2019-05-19T09:33:21.962Z,0.00
2019-05-19T09:34:22.698Z,0.00
2019-05-19T09:35:21.928Z,0.00
2019-05-19T09:36:21.849Z,0.00
2019-05-19T09:37:22.013Z,0.00
2019-05-19T09:38:21.805Z,0.00
2019-05-19T09:39:21.799Z,0.00
2019-05-19T09:40:21.919Z,0.00
2019-05-19T09:41:21.756Z,0.00
2019-05-19T09:42:21.833Z,0.00
2019-05-19T09:43:21.710Z,0.00
2019-05-19T09:44:21.975Z,0.00
2019-05-19T09:45:21.718Z,0.00
2019-05-19T09:46:21.845Z,0.00
2019-05-19T09:47:22.039Z,0.00
2019-05-19T09:48:21.648Z,0.00
2019-05-19T09:49:21.741Z,0.00
2019-05-19T09:50:21.954Z,0.00
2019-05-19T09:51:21.716Z,0.00
2019-05-19T09:52:21.618Z,0.00
2019-05-19T09:53:21.772Z,0.00
2019-05-19T09:54:21.764Z,0.00
2019-05-19T09:55:21.690Z,0.00
2019-05-19T09:56:21.568Z,0.00
2019-05-19T09:57:21.664Z,0.00
2019-05-19T09:58:21.568Z,0.00
2019-05-19T09:59:21.634Z,0.00
2019-05-19T10:00:21.545Z,0.00
2019-05-19T10:01:21.712Z,0.00
2019-05-19T10:02:21.584Z,0.00
2019-05-19T10:03:21.607Z,0.00
2019-05-19T10:04:21.520Z,0.00
2019-05-19T10:05:21.463Z,0.00
2019-05-19T10:06:21.480Z,0.00
2019-05-19T10:07:21.452Z,0.00
2019-05-19T10:08:21.621Z,0.00
2019-05-19T10:09:21.494Z,0.00
2019-05-19T10:10:21.466Z,0.00
2019-05-19T10:11:22.054Z,0.00
2019-05-19T10:12:21.705Z,0.00
2019-05-19T10:13:21.446Z,0.00
2019-05-19T10:14:21.429Z,0.00
2019-05-19T10:15:21.485Z,0.00
2019-05-19T10:16:21.456Z,0.00
2019-05-19T10:17:21.379Z,0.00
2019-05-19T10:18:21.363Z,0.00
2019-05-19T10:19:21.397Z,0.00
2019-05-19T10:20:21.380Z,0.00
2019-05-19T10:21:21.325Z,0.00
2019-05-19T10:22:21.348Z,0.00
2019-05-19T10:23:21.296Z,0.00
2019-05-19T10:24:21.303Z,0.00
2019-05-19T10:25:22.937Z,0.00
2019-05-19T10:26:22.261Z,0.00
2019-05-19T10:27:21.922Z,0.00
2019-05-19T10:28:21.237Z,0.00
2019-05-19T10:29:21.241Z,0.00
2019-05-19T10:30:21.328Z,0.00
2019-05-19T10:31:21.250Z,0.00
2019-05-19T10:32:21.409Z,0.00
2019-05-19T10:33:21.216Z,0.00
2019-05-19T10:34:21.208Z,0.00
2019-05-19T10:35:21.180Z,0.00
2019-05-19T10:36:21.247Z,0.00
2019-05-19T10:37:21.199Z,0.00
2019-05-19T10:38:21.263Z,0.00
2019-05-19T10:39:21.819Z,0.00
2019-05-19T10:40:21.122Z,0.00
2019-05-19T10:41:21.179Z,0.00
2019-05-19T10:42:21.547Z,0.00
2019-05-19T10:43:21.123Z,0.00
2019-05-19T10:44:21.117Z,0.00
2019-05-19T10:45:21.099Z,0.00
2019-05-19T10:46:21.101Z,0.00
2019-05-19T10:47:21.104Z,0.00
2019-05-19T10:48:21.104Z,0.00
2019-05-19T10:49:21.189Z,0.00
2019-05-19T10:50:21.035Z,0.00
2019-05-19T10:51:21.151Z,0.00
2019-05-19T10:52:21.056Z,0.00
2019-05-19T10:53:20.976Z,0.00
2019-05-19T10:54:21.081Z,0.00
2019-05-19T10:55:34.055Z,0.00
2019-05-19T10:56:21.983Z,0.00
2019-05-19T10:57:20.985Z,0.00
2019-05-19T10:58:21.011Z,0.00
2019-05-19T10:59:22.016Z,0.00
2019-05-19T11:00:20.946Z,0.00
2019-05-19T11:01:20.977Z,0.00
2019-05-19T11:02:22.025Z,0.00
2019-05-19T11:03:20.968Z,0.00
2019-05-19T11:04:20.969Z,0.00
2019-05-19T11:05:20.955Z,0.00
2019-05-19T11:06:20.957Z,0.00
2019-05-19T11:07:20.832Z,0.00
2019-05-19T11:08:20.877Z,0.00
2019-05-19T11:09:20.887Z,0.00
2019-05-19T11:10:20.845Z,0.00
2019-05-19T11:11:21.823Z,0.00
2019-05-19T11:12:20.939Z,0.00
2019-05-19T11:13:20.970Z,0.00
2019-05-19T11:14:20.828Z,0.00
2019-05-19T11:15:20.842Z,0.00
2019-05-19T11:16:20.785Z,0.00
2019-05-19T11:17:20.750Z,0.00
2019-05-19T11:18:20.945Z,0.00
2019-05-19T11:19:20.960Z,0.00
2019-05-19T11:20:20.850Z,0.00
2019-05-19T11:21:20.825Z,0.00
2019-05-19T11:22:20.703Z,0.00
2019-05-19T11:23:20.741Z,0.00
2019-05-19T11:24:20.673Z,0.00
2019-05-19T11:25:33.092Z,0.00
2019-05-19T11:26:21.634Z,0.00
2019-05-19T11:27:20.686Z,0.00
2019-05-19T11:28:20.704Z,0.00
2019-05-19T11:29:20.738Z,0.00
2019-05-19T11:30:20.717Z,0.00
2019-05-19T11:31:20.790Z,0.00
2019-05-19T11:32:20.607Z,0.00
2019-05-19T11:33:20.767Z,0.00
2019-05-19T11:34:20.676Z,0.00
2019-05-19T11:35:20.585Z,0.00
2019-05-19T11:36:20.660Z,0.00
2019-05-19T11:37:20.665Z,0.00
2019-05-19T11:38:20.724Z,0.00
2019-05-19T11:39:20.630Z,0.00
2019-05-19T11:40:21.254Z,0.00
2019-05-19T11:41:20.562Z,0.00
2019-05-19T11:42:20.544Z,0.00
2019-05-19T11:43:20.473Z,0.00
2019-05-19T11:44:20.501Z,0.00
2019-05-19T11:45:20.602Z,0.00
2019-05-19T11:46:20.553Z,0.00
2019-05-19T11:47:20.500Z,0.00
2019-05-19T11:48:20.740Z,0.00
2019-05-19T11:49:20.436Z,0.00
2019-05-19T11:50:20.529Z,0.00
2019-05-19T11:51:20.587Z,0.00
2019-05-19T11:52:22.884Z,0.00
2019-05-19T11:53:20.435Z,0.00
2019-05-19T11:54:29.984Z,0.00
2019-05-19T11:55:20.555Z,0.00
2019-05-19T11:56:20.389Z,0.00
2019-05-19T11:57:20.461Z,0.00
2019-05-19T11:58:20.432Z,0.00
2019-05-19T11:59:20.504Z,0.00
2019-05-19T12:00:20.438Z,0.00
2019-05-19T12:01:20.314Z,0.00
2019-05-19T12:02:20.666Z,0.00
2019-05-19T12:03:20.364Z,0.00
2019-05-19T12:04:20.322Z,0.00
2019-05-19T12:05:20.267Z,0.00
2019-05-19T12:06:21.015Z,0.00
2019-05-19T12:07:20.757Z,0.00
2019-05-19T12:08:20.486Z,0.00
2019-05-19T12:09:20.305Z,0.00
2019-05-19T12:10:21.123Z,0.00
2019-05-19T12:11:20.449Z,0.00
2019-05-19T12:12:20.262Z,0.00
2019-05-19T12:13:20.320Z,0.00
2019-05-19T12:14:20.188Z,0.00
2019-05-19T12:15:20.207Z,0.00
2019-05-19T12:16:20.255Z,0.00
2019-05-19T12:17:20.218Z,0.00
2019-05-19T12:18:20.347Z,0.00
2019-05-19T12:19:20.277Z,0.00
2019-05-19T12:20:20.941Z,0.00
2019-05-19T12:21:20.126Z,0.00
2019-05-19T12:22:20.204Z,0.00
2019-05-19T12:23:20.152Z,0.00
2019-05-19T12:24:20.230Z,0.00
2019-05-19T12:25:20.113Z,0.00
2019-05-19T12:26:23.506Z,0.00
2019-05-19T12:27:20.065Z,0.00
2019-05-19T12:28:20.125Z,0.00
2019-05-19T12:29:20.181Z,0.00
2019-05-19T12:30:20.046Z,0.00
2019-05-19T12:31:20.222Z,0.00
2019-05-19T12:32:20.087Z,0.00
2019-05-19T12:33:20.156Z,0.00
2019-05-19T12:34:20.032Z,0.00
2019-05-19T12:35:20.037Z,0.00
2019-05-19T12:36:20.003Z,0.00
2019-05-19T12:37:19.984Z,0.00
2019-05-19T12:38:20.115Z,0.00
2019-05-19T12:39:20.108Z,0.00
2019-05-19T12:40:22.612Z,0.00
2019-05-19T12:41:19.890Z,0.00
2019-05-19T12:42:19.928Z,3.82
2019-05-19T12:43:19.914Z,6.55
2019-05-19T12:44:20.087Z,7.04
2019-05-19T12:45:19.957Z,4.99
2019-05-19T12:46:19.863Z,9.29
2019-05-19T12:47:20.008Z,10.56
2019-05-19T12:48:19.895Z,13.89
2019-05-19T12:49:19.884Z,16.53
2019-05-19T12:50:19.846Z,19.16
2019-05-19T12:51:19.845Z,16.72
2019-05-19T12:52:20.053Z,14.86
2019-05-19T12:53:19.810Z,12.22
2019-05-19T12:54:19.854Z,12.42
2019-05-19T12:55:19.909Z,12.03
2019-05-19T12:56:19.942Z,12.13
2019-05-19T12:57:21.313Z,13.79
2019-05-19T12:58:19.777Z,14.77
2019-05-19T12:59:19.806Z,19.26
2019-05-19T13:00:19.760Z,21.61
2019-05-19T13:01:19.720Z,27.77
2019-05-19T13:02:19.701Z,26.89
2019-05-19T13:03:19.781Z,28.26